Time,TemperatureF,DewpointF,PressureIn,WindDirection,WindDirectionDegrees,WindSpeedMPH,WindSpeedGustMPH,Humidity,HourlyPrecipIn,Conditions,Clouds,dailyrainin,SoftwareType,DateUTC
2013-08-10 00:06:00,80.4,77.0,30.08,SSW,194,1.0,8.0,89,0.00,,,0.00,weatherlink.com 1.10,2013-08-10 04:06:00,
2013-08-10 00:21:00,80.3,77.0,30.08,SSW,192,0.0,8.0,89,0.00,,,0.00,weatherlink.com 1.10,2013-08-10 04:21:00,
2013-08-10 00:36:00,80.2,77.0,30.08,West,276,0.0,7.0,89,0.00,,,0.00,weatherlink.com 1.10,2013-08-10 04:36:00,
2013-08-10 00:51:00,80.0,77.0,30.08,SW,214,0.0,10.0,89,0.00,,,0.00,weatherlink.com 1.10,2013-08-10 04:51:00,
2013-08-10 01:06:00,79.9,77.0,30.09,ESE,103,2.0,5.0,89,0.00,,,0.00,weatherlink.com 1.10,2013-08-10 05:06:00,
2013-08-10 01:21:00,79.9,77.0,30.09,South,181,0.0,3.0,89,0.00,,,0.00,weatherlink.com 1.10,2013-08-10 05:21:00,
2013-08-10 01:36:00,79.7,76.0,30.09,WSW,242,0.0,5.0,89,0.00,,,0.00,weatherlink.com 1.10,2013-08-10 05:36:00,
2013-08-10 01:51:00,79.6,76.0,30.09,WSW,238,0.0,3.0,89,0.00,,,0.00,weatherlink.com 1.10,2013-08-10 05:51:00,
2013-08-10 02:06:00,79.4,76.0,30.09,WSW,246,2.0,3.0,89,0.00,,,0.00,weatherlink.com 1.10,2013-08-10 06:06:00,
2013-08-10 02:21:00,79.3,76.0,30.09,WSW,257,0.0,5.0,89,0.00,,,0.00,weatherlink.com 1.10,2013-08-10 06:21:00,
2013-08-10 02:36:00,79.1,76.0,30.09,West,268,0.0,2.0,89,0.00,,,0.00,weatherlink.com 1.10,2013-08-10 06:36:00,
2013-08-10 02:51:00,78.8,75.0,30.08,SW,225,1.0,4.0,89,0.00,,,0.00,weatherlink.com 1.10,2013-08-10 06:51:00,
2013-08-10 03:06:00,78.8,76.0,30.07,West,262,0.0,5.0,90,0.00,,,0.00,weatherlink.com 1.10,2013-08-10 07:06:00,
2013-08-10 03:21:00,78.8,76.0,30.08,West,264,0.0,5.0,90,0.00,,,0.00,weatherlink.com 1.10,2013-08-10 07:21:00,
2013-08-10 03:36:00,78.7,76.0,30.07,SW,234,1.0,4.0,90,0.00,,,0.00,weatherlink.com 1.10,2013-08-10 07:36:00,
2013-08-10 03:51:00,78.5,75.0,30.07,WSW,243,0.0,4.0,90,0.00,,,0.00,weatherlink.com 1.10,2013-08-10 07:51:00,
2013-08-10 04:06:00,78.4,75.0,30.07,WSW,243,0.0,2.0,90,0.00,,,0.00,weatherlink.com 1.10,2013-08-10 08:06:00,
2013-08-10 04:21:00,78.3,75.0,30.07,WSW,243,0.0,1.0,90,0.00,,,0.00,weatherlink.com 1.10,2013-08-10 08:21:00,
2013-08-10 04:36:00,78.3,76.0,30.08,WSW,244,0.0,1.0,91,0.00,,,0.00,weatherlink.com 1.10,2013-08-10 08:36:00,
2013-08-10 04:51:00,78.3,76.0,30.08,WNW,282,0.0,6.0,91,0.00,,,0.00,weatherlink.com 1.10,2013-08-10 08:51:00,
2013-08-10 05:06:00,78.2,75.0,30.08,WNW,282,0.0,2.0,91,0.00,,,0.00,weatherlink.com 1.10,2013-08-10 09:06:00,
2013-08-10 05:21:00,78.1,75.0,30.09,WNW,282,0.0,2.0,91,0.00,,,0.00,weatherlink.com 1.10,2013-08-10 09:21:00,
2013-08-10 05:36:00,78.0,75.0,30.09,WNW,282,0.0,3.0,91,0.00,,,0.00,weatherlink.com 1.10,2013-08-10 09:36:00,
2013-08-10 05:51:00,78.0,75.0,30.09,WNW,282,0.0,3.0,91,0.00,,,0.00,weatherlink.com 1.10,2013-08-10 09:51:00,
2013-08-10 06:06:00,78.0,75.0,30.09,WNW,283,0.0,4.0,91,0.00,,,0.00,weatherlink.com 1.10,2013-08-10 10:06:00,
2013-08-10 06:21:00,78.0,75.0,30.09,West,279,0.0,4.0,91,0.00,,,0.00,weatherlink.com 1.10,2013-08-10 10:21:00,
2013-08-10 06:36:00,77.9,75.0,30.09,West,279,0.0,4.0,91,0.00,,,0.00,weatherlink.com 1.10,2013-08-10 10:36:00,
2013-08-10 06:51:00,78.1,75.0,30.10,West,265,4.0,7.0,91,0.00,,,0.00,weatherlink.com 1.10,2013-08-10 10:51:00,
2013-08-10 07:06:00,78.5,76.0,30.10,WSW,252,0.0,8.0,91,0.00,,,0.00,weatherlink.com 1.10,2013-08-10 11:06:00,
2013-08-10 07:21:00,78.7,76.0,30.10,South,179,1.0,6.0,91,0.00,,,0.00,weatherlink.com 1.10,2013-08-10 11:21:00,
2013-08-10 07:36:00,79.0,76.0,30.10,West,281,0.0,5.0,91,0.00,,,0.00,weatherlink.com 1.10,2013-08-10 11:36:00,
2013-08-10 07:51:00,79.4,77.0,30.10,WSW,257,0.0,5.0,91,0.00,,,0.00,weatherlink.com 1.10,2013-08-10 11:51:00,
2013-08-10 08:06:00,80.0,77.0,30.10,West,273,0.0,6.0,90,0.00,,,0.00,weatherlink.com 1.10,2013-08-10 12:06:00,
2013-08-10 08:21:00,80.7,77.0,30.10,West,266,1.0,7.0,89,0.00,,,0.00,weatherlink.com 1.10,2013-08-10 12:21:00,
2013-08-10 08:36:00,81.6,77.0,30.10,West,274,0.0,8.0,87,0.00,,,0.00,weatherlink.com 1.10,2013-08-10 12:36:00,
2013-08-10 08:51:00,82.6,77.0,30.10,West,277,3.0,10.0,84,0.00,,,0.00,weatherlink.com 1.10,2013-08-10 12:51:00,
2013-08-10 09:06:00,84.1,79.0,30.10,WNW,282,0.0,11.0,83,0.00,,,0.00,weatherlink.com 1.10,2013-08-10 13:06:00,
2013-08-10 09:21:00,86.1,79.0,30.10,West,278,0.0,6.0,80,0.00,,,0.00,weatherlink.com 1.10,2013-08-10 13:21:00,
2013-08-10 09:36:00,87.3,79.0,30.10,WNW,282,5.0,7.0,76,0.00,,,0.00,weatherlink.com 1.10,2013-08-10 13:36:00,
2013-08-10 09:51:00,87.5,79.0,30.10,West,277,4.0,9.0,75,0.00,,,0.00,weatherlink.com 1.10,2013-08-10 13:51:00,
2013-08-10 10:06:00,88.7,79.0,30.10,West,260,3.0,7.0,72,0.00,,,0.00,weatherlink.com 1.10,2013-08-10 14:06:00,
2013-08-10 10:22:00,90.0,79.0,30.10,WNW,295,0.0,5.0,70,0.00,,,0.00,weatherlink.com 1.10,2013-08-10 14:22:00,
2013-08-10 10:37:00,90.8,78.0,30.10,SSW,193,0.0,7.0,67,0.00,,,0.00,weatherlink.com 1.10,2013-08-10 14:37:00,
2013-08-10 10:52:00,91.3,81.0,30.10,SSW,194,0.0,10.0,71,0.00,,,0.00,weatherlink.com 1.10,2013-08-10 14:52:00,
2013-08-10 11:07:00,91.0,81.0,30.11,SSW,194,6.0,9.0,72,0.00,,,0.00,weatherlink.com 1.10,2013-08-10 15:07:00,
2013-08-10 11:22:00,91.1,81.0,30.10,South,187,1.0,8.0,72,0.00,,,0.00,weatherlink.com 1.10,2013-08-10 15:22:00,
2013-08-10 11:37:00,91.5,80.0,30.10,SSW,197,3.0,12.0,70,0.00,,,0.00,weatherlink.com 1.10,2013-08-10 15:37:00,
2013-08-10 11:52:00,91.8,81.0,30.10,South,170,9.0,11.0,70,0.00,,,0.00,weatherlink.com 1.10,2013-08-10 15:52:00,
2013-08-10 12:07:00,92.6,81.0,30.10,SSW,209,1.0,11.0,68,0.00,,,0.00,weatherlink.com 1.10,2013-08-10 16:07:00,
2013-08-10 12:22:00,92.9,81.0,30.10,SSW,211,4.0,8.0,69,0.00,,,0.00,weatherlink.com 1.10,2013-08-10 16:22:00,
2013-08-10 12:37:00,92.4,81.0,30.10,SSW,192,5.0,14.0,69,0.00,,,0.00,weatherlink.com 1.10,2013-08-10 16:37:00,
2013-08-10 12:52:00,92.7,81.0,30.09,SSW,202,7.0,13.0,69,0.00,,,0.00,weatherlink.com 1.10,2013-08-10 16:52:00,
2013-08-10 13:07:00,92.9,81.0,30.09,SW,218,6.0,12.0,69,0.00,,,0.00,weatherlink.com 1.10,2013-08-10 17:07:00,
2013-08-10 13:22:00,91.1,81.0,30.09,SW,232,6.0,14.0,71,0.00,,,0.00,weatherlink.com 1.10,2013-08-10 17:22:00,
2013-08-10 13:37:00,92.4,81.0,30.09,South,180,3.0,14.0,70,0.00,,,0.00,weatherlink.com 1.10,2013-08-10 17:37:00,
2013-08-10 13:52:00,92.0,81.0,30.09,South,184,7.0,13.0,71,0.00,,,0.00,weatherlink.com 1.10,2013-08-10 17:52:00,
2013-08-10 14:07:00,92.4,81.0,30.09,South,187,6.0,13.0,69,0.00,,,0.00,weatherlink.com 1.10,2013-08-10 18:07:00,
2013-08-10 14:22:00,92.3,81.0,30.08,South,188,6.0,17.0,70,0.00,,,0.00,weatherlink.com 1.10,2013-08-10 18:22:00,
2013-08-10 14:37:00,92.4,81.0,30.07,SSW,194,2.0,14.0,69,0.00,,,0.00,weatherlink.com 1.10,2013-08-10 18:37:00,
2013-08-10 14:52:00,92.2,81.0,30.07,SSW,192,8.0,17.0,70,0.00,,,0.00,weatherlink.com 1.10,2013-08-10 18:52:00,
2013-08-10 15:07:00,91.7,80.0,30.07,South,184,4.0,18.0,69,0.00,,,0.00,weatherlink.com 1.10,2013-08-10 19:07:00,
2013-08-10 15:22:00,91.4,81.0,30.06,SSW,207,0.0,14.0,71,0.00,,,0.00,weatherlink.com 1.10,2013-08-10 19:22:00,
2013-08-10 15:37:00,91.4,80.0,30.05,SSW,193,5.0,15.0,70,0.00,,,0.00,weatherlink.com 1.10,2013-08-10 19:37:00,
2013-08-10 15:52:00,91.5,80.0,30.05,SW,236,1.0,14.0,70,0.00,,,0.00,weatherlink.com 1.10,2013-08-10 19:52:00,
2013-08-10 16:07:00,90.4,80.0,30.05,SW,216,12.0,17.0,72,0.00,,,0.00,weatherlink.com 1.10,2013-08-10 20:07:00,
2013-08-10 16:22:00,90.1,80.0,30.04,South,181,3.0,15.0,73,0.00,,,0.00,weatherlink.com 1.10,2013-08-10 20:22:00,
2013-08-10 16:37:00,89.3,80.0,30.04,South,180,2.0,17.0,74,0.00,,,0.00,weatherlink.com 1.10,2013-08-10 20:37:00,
2013-08-10 16:52:00,88.7,80.0,30.04,SW,222,4.0,15.0,76,0.00,,,0.00,weatherlink.com 1.10,2013-08-10 20:52:00,
2013-08-10 17:07:00,87.9,80.0,30.04,South,188,0.0,15.0,77,0.00,,,0.00,weatherlink.com 1.10,2013-08-10 21:07:00,
2013-08-10 17:22:00,86.6,79.0,30.04,SW,232,7.0,12.0,79,0.00,,,0.00,weatherlink.com 1.10,2013-08-10 21:22:00,
2013-08-10 17:37:00,85.7,79.0,30.04,SSW,213,7.0,12.0,81,0.00,,,0.00,weatherlink.com 1.10,2013-08-10 21:37:00,
2013-08-10 17:52:00,85.2,79.0,30.04,South,190,1.0,10.0,82,0.00,,,0.00,weatherlink.com 1.10,2013-08-10 21:52:00,
2013-08-10 18:07:00,85.1,79.0,30.03,SSW,205,7.0,12.0,82,0.00,,,0.00,weatherlink.com 1.10,2013-08-10 22:07:00,
2013-08-10 18:22:00,84.6,79.0,30.03,SSW,200,7.0,12.0,83,0.00,,,0.00,weatherlink.com 1.10,2013-08-10 22:22:00,
2013-08-10 18:37:00,84.2,79.0,30.03,WNW,284,1.0,10.0,83,0.00,,,0.00,weatherlink.com 1.10,2013-08-10 22:37:00,
2013-08-10 18:52:00,83.8,79.0,30.04,South,178,4.0,13.0,84,0.00,,,0.00,weatherlink.com 1.10,2013-08-10 22:52:00,
2013-08-10 19:07:00,83.4,78.0,30.04,WSW,241,3.0,12.0,84,0.00,,,0.00,weatherlink.com 1.10,2013-08-10 23:07:00,
2013-08-10 19:22:00,83.1,78.0,30.05,SSW,199,5.0,15.0,85,0.00,,,0.00,weatherlink.com 1.10,2013-08-10 23:22:00,
2013-08-10 19:37:00,82.7,78.0,30.05,SSW,211,3.0,11.0,85,0.00,,,0.00,weatherlink.com 1.10,2013-08-10 23:37:00,
2013-08-10 19:52:00,82.3,78.0,30.06,WNW,303,4.0,10.0,86,0.00,,,0.00,weatherlink.com 1.10,2013-08-10 23:52:00,
2013-08-10 20:07:00,82.2,78.0,30.05,North,355,2.0,8.0,86,0.00,,,0.00,weatherlink.com 1.10,2013-08-11 00:07:00,
2013-08-10 20:22:00,82.0,78.0,30.06,SSW,193,4.0,7.0,87,0.00,,,0.00,weatherlink.com 1.10,2013-08-11 00:22:00,
2013-08-10 20:37:00,81.7,78.0,30.06,SSW,192,4.0,6.0,87,0.00,,,0.00,weatherlink.com 1.10,2013-08-11 00:37:00,
2013-08-10 20:52:00,81.5,77.0,30.07,SSW,211,0.0,6.0,87,0.00,,,0.00,weatherlink.com 1.10,2013-08-11 00:52:00,
2013-08-10 21:07:00,81.3,77.0,30.07,West,268,0.0,3.0,87,0.00,,,0.00,weatherlink.com 1.10,2013-08-11 01:07:00,
2013-08-10 21:22:00,81.1,77.0,30.09,West,274,0.0,6.0,87,0.00,,,0.00,weatherlink.com 1.10,2013-08-11 01:22:00,
2013-08-10 21:37:00,80.9,77.0,30.10,WSW,245,0.0,2.0,87,0.00,,,0.00,weatherlink.com 1.10,2013-08-11 01:37:00,
2013-08-10 21:52:00,80.7,77.0,30.11,WSW,243,0.0,1.0,87,0.00,,,0.00,weatherlink.com 1.10,2013-08-11 01:52:00,
2013-08-10 22:07:00,81.0,77.0,30.12,NW,324,0.0,6.0,87,0.00,,,0.00,weatherlink.com 1.10,2013-08-11 02:07:00,
2013-08-10 22:22:00,81.4,77.0,30.13,NNW,327,0.0,4.0,87,0.00,,,0.00,weatherlink.com 1.10,2013-08-11 02:22:00,
2013-08-10 22:37:00,81.2,77.0,30.12,NNW,327,0.0,0.0,86,0.00,,,0.00,weatherlink.com 1.10,2013-08-11 02:37:00,
2013-08-10 22:52:00,80.6,77.0,30.11,NNW,327,0.0,0.0,87,0.00,,,0.00,weatherlink.com 1.10,2013-08-11 02:52:00,
2013-08-10 23:07:00,80.0,76.0,30.11,NNW,327,0.0,3.0,88,0.00,,,0.00,weatherlink.com 1.10,2013-08-11 03:07:00,
2013-08-10 23:37:00,79.4,76.0,30.10,NNW,327,0.0,1.0,88,0.00,,,0.00,weatherlink.com 1.10,2013-08-11 03:37:00,